.
WxDataArchive / Data Records for 2008-10-02
2008-10-01 October 2008 2008-10-03

Data Records for Thursday, 02 October 2008

Time	Temp	Chill	HIndex	Humid	Dewpt	 Wind 	HiWind	WindDir	Rain 	Barom 
-----	----	-----	------	-----	-----	------	------	-------	-----	----- 
00:00	42.8	42.8	42.8	80	37.1	0	0	---	0.00	29.893 
00:05	42.6	42.6	42.6	80	36.9	0	0	---	0.00	29.894 
00:10	42.5	42.5	42.5	81	37.1	0	0	---	0.00	29.894 
00:15	42.2	42.2	42.2	81	36.8	0	0	---	0.00	29.895 
00:20	41.9	41.9	41.9	82	36.8	0	0	---	0.00	29.896 
00:25	41.8	41.8	41.8	82	36.7	0	0	---	0.00	29.895 
00:30	41.5	41.5	41.5	82	36.4	0	0	---	0.00	29.895 
00:35	41.2	41.2	41.2	83	36.4	0	0	---	0.00	29.896 
00:40	41.1	41.1	41.1	84	36.6	0	0	---	0.00	29.895 
00:45	40.8	40.8	40.8	84	36.3	0	0	---	0.00	29.894 
00:50	40.6	40.6	40.6	85	36.4	0	0	---	0.00	29.894 
00:55	40.5	40.5	40.5	86	36.6	0	0	---	0.00	29.892 
01:00	40.5	40.5	40.5	86	36.6	0	0	---	0.00	29.894 
01:05	40.5	40.5	40.5	87	36.9	0	0	---	0.00	29.896 
01:10	40.5	40.5	40.5	87	36.9	0	0	---	0.00	29.897 
01:15	40.3	40.3	40.3	87	36.7	0	0	---	0.00	29.897 
01:20	40.3	40.3	40.3	87	36.7	0	0	---	0.00	29.898 
01:25	40.3	40.3	40.3	87	36.7	0	0	---	0.00	29.898 
01:30	40.2	40.2	40.2	87	36.6	0	0	---	0.00	29.899 
01:35	40.2	40.2	40.2	88	36.9	0	0	---	0.00	29.899 
01:40	40.1	40.1	40.1	88	36.8	0	0	---	0.00	29.899 
01:45	40.1	40.1	40.1	88	36.8	0	0	---	0.00	29.899 
01:50	39.9	39.9	39.9	88	36.6	0	0	---	0.00	29.900 
01:55	39.8	39.8	39.8	88	36.5	0	0	---	0.00	29.902 
02:00	39.6	39.6	39.6	88	36.3	0	0	---	0.00	29.901 
02:05	39.5	39.5	39.5	88	36.2	0	0	---	0.00	29.900 
02:10	39.3	39.3	39.3	88	36.0	0	0	---	0.00	29.899 
02:15	39.3	39.3	39.3	89	36.3	0	0	---	0.00	29.900 
02:20	39.3	39.3	39.3	89	36.3	0	0	---	0.00	29.899 
02:25	39.5	39.5	39.5	90	36.8	0	0	---	0.00	29.898 
02:30	39.8	39.8	39.8	91	37.4	0	0	---	0.00	29.895 
02:35	40.1	40.1	40.1	91	37.7	0	0	---	0.00	29.892 
02:40	40.3	40.3	40.3	91	37.9	0	0	---	0.00	29.892 
02:45	40.5	40.5	40.5	91	38.1	0	0	---	0.00	29.888 
02:50	40.6	40.6	40.6	91	38.2	0	0	---	0.00	29.890 
02:55	40.9	40.9	40.9	90	38.2	0	0	---	0.00	29.889 
03:00	41.1	41.1	41.1	90	38.4	0	0	---	0.00	29.891 
03:05	41.3	41.3	41.3	90	38.6	0	0	---	0.00	29.890 
03:10	41.6	41.6	41.6	89	38.6	0	0	---	0.00	29.885 
03:15	41.8	41.8	41.8	89	38.8	0	0	---	0.00	29.883 
03:20	41.8	41.8	41.8	88	38.5	0	0	---	0.00	29.882 
03:25	41.8	41.8	41.8	88	38.5	0	0	---	0.00	29.886 
03:30	41.6	41.6	41.6	88	38.3	0	0	---	0.00	29.884 
03:35	41.5	41.5	41.5	88	38.2	0	0	---	0.00	29.883 
03:40	41.3	41.3	41.3	88	38.0	0	0	---	0.00	29.884 
03:45	41.1	41.1	41.1	87	37.5	0	0	---	0.00	29.884 
03:50	40.8	40.8	40.8	88	37.5	0	0	---	0.00	29.884 
03:55	40.6	40.6	40.6	88	37.3	0	0	---	0.00	29.884 
04:00	40.5	40.5	40.5	88	37.2	0	0	---	0.00	29.883 
04:05	40.3	40.3	40.3	88	37.0	0	0	---	0.00	29.883 
04:10	40.2	40.2	40.2	89	37.2	0	0	---	0.00	29.884 
04:15	40.1	40.1	40.1	89	37.1	0	0	---	0.00	29.885 
04:20	39.9	39.9	39.9	90	37.2	0	0	---	0.00	29.886 
04:25	39.9	39.9	39.9	90	37.2	0	0	---	0.00	29.886 
04:30	39.9	39.9	39.9	90	37.2	0	0	---	0.00	29.885 
04:35	40.1	40.1	40.1	91	37.7	0	0	---	0.00	29.884 
04:40	40.2	40.2	40.2	91	37.8	0	0	---	0.00	29.883 
04:45	40.3	40.3	40.3	91	37.9	0	0	---	0.00	29.878 
04:50	40.5	40.5	40.5	92	38.4	0	0	---	0.00	29.879 
04:55	40.6	40.6	40.6	92	38.5	0	0	---	0.00	29.882 
05:00	40.8	40.8	40.8	92	38.7	0	0	---	0.00	29.882 
05:05	40.8	40.8	40.8	92	38.7	0	0	---	0.00	29.883 
05:10	40.9	40.9	40.9	92	38.8	0	0	---	0.00	29.882 
05:15	41.2	41.2	41.2	92	39.1	0	0	---	0.00	29.883 
05:20	41.5	41.5	41.5	92	39.4	0	0	---	0.00	29.882 
05:25	41.8	41.8	41.8	92	39.6	0	0	---	0.00	29.882 
05:30	42.2	42.2	42.2	92	40.0	0	0	---	0.00	29.882 
05:35	42.8	42.8	42.8	92	40.6	0	0	---	0.00	29.880 
05:40	43.1	43.1	43.1	91	40.7	0	1	270	0.00	29.881 
05:45	43.5	43.5	43.5	91	41.0	0	0	---	0.00	29.881 
05:50	43.8	43.8	43.8	90	41.1	0	1	270	0.00	29.884 
05:55	44.1	44.1	44.1	89	41.1	0	1	270	0.00	29.882 
06:00	44.3	44.3	44.3	88	41.0	0	1	270	0.00	29.879 
06:05	44.6	44.6	44.6	88	41.3	0	1	270	0.00	29.879 
06:10	44.9	44.9	44.9	88	41.6	0	1	270	0.00	29.880 
06:15	45.1	45.1	45.1	87	41.5	0	1	270	0.00	29.880 
06:20	45.2	45.2	45.2	86	41.3	0	1	270	0.00	29.881 
06:25	45.2	45.2	45.2	86	41.3	0	1	270	0.00	29.884 
06:30	45.4	45.4	45.4	86	41.5	0	1	270	0.00	29.888 
06:35	45.4	45.4	45.4	85	41.2	0	1	270	0.00	29.892 
06:40	45.5	45.5	45.5	85	41.3	0	1	270	0.00	29.888 
06:45	45.5	45.5	45.5	85	41.3	0	1	270	0.00	29.881 
06:50	45.5	45.5	45.5	84	41.0	0	1	270	0.00	29.877 
06:55	45.4	45.4	45.4	84	40.9	0	1	270	0.00	29.879 
07:00	45.2	45.2	45.2	84	40.7	0	1	270	0.00	29.881 
07:05	45.1	45.1	45.1	85	40.9	0	1	270	0.00	29.887 
07:10	45.1	45.1	45.1	85	40.9	0	2	270	0.00	29.884 
07:15	45.1	45.1	45.1	85	40.9	0	1	270	0.00	29.888 
07:20	45.2	45.2	45.2	85	41.0	0	0	---	0.00	29.891 
07:25	45.2	45.2	45.2	85	41.0	0	0	---	0.00	29.894 
07:30	45.2	45.2	45.2	84	40.7	0	1	270	0.00	29.888 
07:35	45.2	45.2	45.2	84	40.7	0	0	---	0.00	29.886 
07:40	45.2	45.2	45.2	84	40.7	0	1	270	0.00	29.886 
07:45	45.5	45.5	45.5	85	41.3	0	2	270	0.00	29.882 
07:50	45.8	45.8	45.8	83	40.9	0	3	270	0.00	29.885 
07:55	46.1	46.1	46.1	83	41.2	0	1	270	0.00	29.889 
08:00	46.4	46.4	46.4	82	41.2	0	2	270	0.00	29.888 
08:05	46.8	46.8	46.8	82	41.6	0	1	270	0.00	29.890 
08:10	47.1	47.1	47.1	81	41.6	0	2	270	0.00	29.889 
08:15	47.3	47.3	47.3	81	41.8	0	1	270	0.00	29.889 
08:20	47.7	47.7	47.7	82	42.5	0	2	270	0.00	29.893 
08:25	48.3	48.3	48.3	81	42.7	0	2	270	0.00	29.894 
08:30	48.6	48.6	48.6	81	43.0	0	2	248	0.00	29.894 
08:35	48.9	48.9	48.9	81	43.3	1	3	270	0.00	29.893 
08:40	49.1	49.1	49.1	81	43.5	0	2	270	0.00	29.889 
08:45	49.5	49.5	49.5	81	43.9	1	3	248	0.00	29.892 
08:50	49.9	49.9	49.9	81	44.3	1	3	248	0.00	29.894 
08:55	50.4	50.4	50.4	81	44.8	1	3	248	0.00	29.893 
09:00	50.8	50.8	50.8	80	44.9	1	3	292	0.00	29.890 
09:05	51.1	51.1	51.1	80	45.1	1	2	292	0.00	29.887 
09:10	51.3	51.3	51.3	78	44.7	1	3	292	0.00	29.889 
09:15	51.4	51.4	51.4	78	44.8	1	3	248	0.00	29.884 
09:20	51.4	51.4	51.4	79	45.1	0	1	248	0.00	29.882 
09:25	51.6	51.6	51.6	78	45.0	0	3	248	0.00	29.883 
09:30	51.7	51.7	51.7	78	45.1	2	6	248	0.00	29.886 
09:35	51.7	51.7	51.7	77	44.7	1	3	248	0.00	29.886 
09:40	51.7	51.7	51.7	78	45.1	1	3	248	0.00	29.888 
09:45	51.4	51.4	51.4	78	44.8	1	3	248	0.00	29.887 
09:50	51.6	51.6	51.6	79	45.3	1	3	248	0.00	29.888 
09:55	51.7	51.7	51.7	78	45.1	1	3	248	0.00	29.893 
10:00	52.0	52.0	52.0	78	45.4	1	4	270	0.00	29.885 
10:05	52.3	52.3	52.3	78	45.6	0	1	270	0.00	29.882 
10:10	52.5	52.5	52.5	77	45.5	1	3	248	0.00	29.881 
10:15	52.8	52.8	52.8	76	45.4	1	2	248	0.00	29.881 
10:20	52.9	52.9	52.9	75	45.2	1	4	248	0.00	29.882 
10:25	53.1	53.1	53.1	74	45.0	1	3	225	0.00	29.878 
10:30	53.5	53.5	53.5	76	46.1	1	3	248	0.00	29.877 
10:35	54.5	54.5	54.5	70	44.9	2	4	248	0.00	29.873 
10:40	55.1	55.1	55.1	70	45.5	2	5	270	0.00	29.868 
10:45	56.2	56.2	56.2	68	45.8	2	4	248	0.00	29.867 
10:50	56.9	56.9	56.9	66	45.7	2	5	270	0.00	29.869 
10:55	57.2	57.2	57.2	63	44.7	2	5	270	0.00	29.866 
11:00	57.2	57.2	57.2	62	44.3	2	5	248	0.00	29.866 
11:05	56.7	56.7	56.7	63	44.2	1	3	248	0.00	29.866 
11:10	56.3	56.3	56.3	59	42.2	2	6	270	0.00	29.863 
11:15	56.3	56.3	56.3	60	42.6	2	6	270	0.00	29.865 
11:20	56.5	56.5	56.5	61	43.2	3	7	292	0.00	29.865 
11:25	56.5	56.5	56.5	59	42.3	2	6	270	0.00	29.863 
11:30	56.2	56.2	56.2	58	41.6	2	5	270	0.00	29.866 
11:35	56.7	56.7	56.7	61	43.4	2	6	270	0.00	29.863 
11:40	57.0	57.0	57.0	57	41.9	2	5	270	0.00	29.862 
11:45	57.3	57.3	57.3	56	41.7	2	7	270	0.00	29.861 
11:50	57.2	57.2	57.2	55	41.2	3	5	270	0.00	29.862 
11:55	57.3	57.3	57.3	56	41.7	3	6	270	0.00	29.859 
12:00	58.1	58.1	58.1	53	41.1	3	7	248	0.00	29.859 
12:05	58.3	58.3	58.3	51	40.3	3	7	315	0.00	29.860 
12:10	58.0	58.0	58.0	51	40.0	3	7	270	0.00	29.858 
12:15	57.5	57.5	57.5	53	40.5	3	9	270	0.00	29.853 
12:20	57.8	57.8	57.8	54	41.3	2	5	270	0.00	29.852 
12:25	58.3	58.3	58.3	52	40.8	2	5	270	0.00	29.851 
12:30	58.6	58.6	58.6	54	42.0	1	3	292	0.00	29.850 
12:35	58.4	58.4	58.4	52	40.8	2	5	270	0.00	29.847 
12:40	58.1	58.1	58.1	54	41.5	2	5	270	0.00	29.848 
12:45	58.6	58.6	58.6	54	42.0	3	6	270	0.00	29.844 
12:50	58.1	58.1	58.1	53	41.1	3	6	270	0.00	29.844 
12:55	57.6	57.6	57.6	55	41.6	2	5	292	0.00	29.845 
13:00	57.6	57.6	57.6	56	42.0	2	4	292	0.00	29.846 
13:05	57.6	57.6	57.6	57	42.5	2	5	270	0.00	29.837 
13:10	57.5	57.5	57.5	57	42.4	2	6	270	0.00	29.836 
13:15	58.0	58.0	58.0	57	42.9	2	4	248	0.00	29.834 
13:20	58.4	58.4	58.4	55	42.3	3	7	270	0.00	29.832 
13:25	58.7	58.7	58.7	55	42.6	3	6	270	0.00	29.830 
13:30	59.2	59.2	59.2	52	41.6	3	6	292	0.00	29.830 
13:35	59.3	59.3	59.3	54	42.7	3	9	292	0.00	29.830 
13:40	59.3	59.3	59.3	54	42.7	3	7	270	0.00	29.827 
13:45	58.7	58.7	58.7	53	41.6	2	5	315	0.00	29.825 
13:50	58.3	58.3	58.3	54	41.7	2	5	270	0.00	29.826 
13:55	58.0	58.0	58.0	54	41.4	3	5	270	0.00	29.823 
14:00	57.8	57.8	57.8	55	41.7	3	6	270	0.00	29.822 
14:05	57.8	57.8	57.8	55	41.7	2	5	270	0.00	29.818 
14:10	57.8	57.8	57.8	54	41.3	2	4	270	0.00	29.819 
14:15	57.6	57.6	57.6	55	41.6	2	4	270	0.00	29.818 
14:20	57.8	57.8	57.8	56	42.2	1	2	270	0.00	29.818 
14:25	58.0	58.0	58.0	55	41.9	2	5	270	0.00	29.818 
14:30	58.0	58.0	58.0	55	41.9	2	4	270	0.00	29.817 
14:35	58.0	58.0	58.0	54	41.4	2	7	270	0.00	29.817 
14:40	58.1	58.1	58.1	54	41.5	2	4	270	0.00	29.817 
14:45	58.0	58.0	58.0	54	41.4	1	4	292	0.00	29.815 
14:50	57.6	57.6	57.6	54	41.1	1	4	292	0.00	29.814 
14:55	57.5	57.5	57.5	54	41.0	2	5	270	0.00	29.813 
15:00	57.3	57.3	57.3	53	40.3	3	7	270	0.00	29.815 
15:05	57.3	57.3	57.3	53	40.3	2	5	270	0.00	29.817 
15:10	57.3	57.3	57.3	53	40.3	2	5	248	0.00	29.817 
15:15	57.3	57.3	57.3	52	39.8	2	5	270	0.00	29.815 
15:20	57.3	57.3	57.3	51	39.3	3	6	270	0.00	29.817 
15:25	57.2	57.2	57.2	52	39.7	2	5	270	0.00	29.815 
15:30	57.0	57.0	57.0	51	39.1	3	6	270	0.00	29.816 
15:35	57.2	57.2	57.2	51	39.2	3	5	270	0.00	29.816 
15:40	57.3	57.3	57.3	53	40.3	1	2	248	0.00	29.814 
15:45	57.5	57.5	57.5	53	40.5	1	3	248	0.00	29.812 
15:50	57.6	57.6	57.6	52	40.1	1	4	270	0.00	29.811 
15:55	57.8	57.8	57.8	52	40.3	1	4	292	0.00	29.811 
16:00	57.8	57.8	57.8	51	39.8	2	4	248	0.00	29.805 
16:05	57.6	57.6	57.6	52	40.1	2	3	270	0.00	29.804 
16:10	57.6	57.6	57.6	52	40.1	1	3	270	0.00	29.804 
16:15	57.5	57.5	57.5	52	40.0	1	4	270	0.00	29.804 
16:20	57.3	57.3	57.3	52	39.8	1	3	270	0.00	29.805 
16:25	57.5	57.5	57.5	52	40.0	1	3	248	0.00	29.804 
16:30	57.8	57.8	57.8	53	40.8	0	2	248	0.00	29.803 
16:35	58.0	58.0	58.0	54	41.4	0	1	248	0.00	29.802 
16:40	58.0	58.0	58.0	51	40.0	0	3	248	0.00	29.803 
16:45	58.0	58.0	58.0	52	40.5	0	2	248	0.00	29.806 
16:50	58.1	58.1	58.1	52	40.6	0	4	248	0.00	29.805 
16:55	58.1	58.1	58.1	51	40.1	2	4	248	0.00	29.805 
17:00	58.1	58.1	58.1	52	40.6	0	3	270	0.00	29.803 
17:05	58.0	58.0	58.0	52	40.5	1	4	270	0.00	29.801 
17:10	58.0	58.0	58.0	51	40.0	2	4	292	0.00	29.802 
17:15	58.1	58.1	58.1	51	40.1	1	3	248	0.00	29.799 
17:20	58.1	58.1	58.1	52	40.6	1	3	292	0.00	29.798 
17:25	58.1	58.1	58.1	51	40.1	1	3	292	0.00	29.799 
17:30	58.1	58.1	58.1	51	40.1	0	1	292	0.00	29.798 
17:35	58.0	58.0	58.0	52	40.5	0	1	292	0.00	29.796 
17:40	58.0	58.0	58.0	52	40.5	0	1	292	0.00	29.793 
17:45	57.8	57.8	57.8	52	40.3	0	1	292	0.00	29.793 
17:50	57.8	57.8	57.8	53	40.8	0	1	292	0.00	29.793 
17:55	57.6	57.6	57.6	52	40.1	0	3	292	0.00	29.792 
18:00	57.6	57.6	57.6	53	40.6	0	2	292	0.00	29.793 
18:05	57.5	57.5	57.5	53	40.5	0	2	292	0.00	29.795 
18:10	57.3	57.3	57.3	53	40.3	0	1	292	0.00	29.791 
18:15	57.3	57.3	57.3	53	40.3	0	2	292	0.00	29.791 
18:20	57.3	57.3	57.3	53	40.3	0	1	292	0.00	29.788 
18:25	57.5	57.5	57.5	54	41.0	0	1	292	0.00	29.792 
18:30	57.3	57.3	57.3	54	40.8	0	1	292	0.00	29.793 
18:35	57.3	57.3	57.3	54	40.8	0	1	292	0.00	29.791 
18:40	57.2	57.2	57.2	54	40.7	0	1	292	0.00	29.794 
18:45	57.0	57.0	57.0	55	41.0	0	1	292	0.00	29.796 
18:50	57.0	57.0	57.0	54	40.5	0	1	292	0.00	29.796 
18:55	57.0	57.0	57.0	55	41.0	0	1	292	0.00	29.796 
19:00	57.0	57.0	57.0	54	40.5	0	1	292	0.00	29.794 
19:05	57.0	57.0	57.0	54	40.5	0	1	292	0.00	29.795 
19:10	57.0	57.0	57.0	54	40.5	0	1	292	0.00	29.795 
19:15	57.0	57.0	57.0	53	40.0	1	3	292	0.00	29.797 
19:20	57.2	57.2	57.2	54	40.7	0	1	292	0.00	29.796 
19:25	57.0	57.0	57.0	55	41.0	0	1	292	0.00	29.796 
19:30	57.0	57.0	57.0	55	41.0	0	1	292	0.00	29.796 
19:35	56.9	56.9	56.9	55	40.9	0	1	292	0.00	29.795 
19:40	56.7	56.7	56.7	55	40.7	0	1	292	0.00	29.796 
19:45	56.7	56.7	56.7	56	41.2	0	1	292	0.00	29.796 
19:50	56.6	56.6	56.6	55	40.6	0	1	292	0.00	29.795 
19:55	56.6	56.6	56.6	56	41.1	0	1	292	0.00	29.793 
20:00	56.6	56.6	56.6	56	41.1	0	1	292	0.00	29.792 
20:05	56.6	56.6	56.6	57	41.5	0	1	292	0.00	29.785 
20:10	56.6	56.6	56.6	56	41.1	0	1	292	0.00	29.784 
20:15	56.5	56.5	56.5	57	41.5	0	1	292	0.00	29.783 
20:20	56.5	56.5	56.5	57	41.5	0	1	292	0.00	29.782 
20:25	56.3	56.3	56.3	57	41.3	0	1	292	0.00	29.780 
20:30	56.3	56.3	56.3	57	41.3	0	1	292	0.00	29.781 
20:35	56.3	56.3	56.3	57	41.3	0	1	292	0.00	29.780 
20:40	56.3	56.3	56.3	57	41.3	0	1	292	0.00	29.780 
20:45	56.3	56.3	56.3	58	41.7	0	1	292	0.00	29.779 
20:50	56.3	56.3	56.3	58	41.7	0	2	292	0.00	29.779 
20:55	56.2	56.2	56.2	58	41.6	0	2	248	0.00	29.779 
21:00	56.2	56.2	56.2	58	41.6	0	1	248	0.00	29.780 
21:05	56.2	56.2	56.2	58	41.6	0	2	248	0.00	29.778 
21:10	56.2	56.2	56.2	58	41.6	0	1	248	0.00	29.778 
21:15	56.2	56.2	56.2	58	41.6	0	1	248	0.00	29.779 
21:20	56.0	56.0	56.0	58	41.4	0	1	248	0.00	29.779 
21:25	56.0	56.0	56.0	58	41.4	0	1	248	0.00	29.779 
21:30	56.0	56.0	56.0	58	41.4	0	1	248	0.00	29.779 
21:35	56.0	56.0	56.0	58	41.4	0	1	248	0.00	29.779 
21:40	56.0	56.0	56.0	58	41.4	0	2	248	0.00	29.779 
21:45	56.0	56.0	56.0	58	41.4	0	1	248	0.00	29.778 
21:50	56.0	56.0	56.0	59	41.9	0	1	248	0.00	29.779 
21:55	55.9	55.9	55.9	59	41.8	0	1	248	0.00	29.779 
22:00	55.9	55.9	55.9	59	41.8	0	1	248	0.00	29.780 
22:05	55.9	55.9	55.9	59	41.8	0	1	248	0.00	29.777 
22:10	56.0	56.0	56.0	59	41.9	0	2	248	0.00	29.779 
22:15	56.0	56.0	56.0	59	41.9	0	2	248	0.00	29.778 
22:20	56.0	56.0	56.0	59	41.9	0	2	248	0.00	29.777 
22:25	56.0	56.0	56.0	59	41.9	0	2	248	0.00	29.777 
22:30	56.0	56.0	56.0	59	41.9	1	3	248	0.00	29.776 
22:35	56.0	56.0	56.0	59	41.9	0	2	248	0.00	29.776 
22:40	56.0	56.0	56.0	59	41.9	0	1	248	0.00	29.777 
22:45	56.0	56.0	56.0	60	42.3	0	2	248	0.00	29.777 
22:50	56.0	56.0	56.0	60	42.3	0	2	248	0.00	29.777 
22:55	56.0	56.0	56.0	60	42.3	0	3	248	0.00	29.777 
23:00	56.0	56.0	56.0	60	42.3	0	2	248	0.00	29.777 
23:05	55.9	55.9	55.9	60	42.2	0	1	248	0.00	29.775 
23:10	55.9	55.9	55.9	60	42.2	0	1	248	0.00	29.776 
23:15	55.9	55.9	55.9	60	42.2	0	1	248	0.00	29.775 
23:20	55.7	55.7	55.7	61	42.5	0	1	248	0.00	29.774 
23:25	55.7	55.7	55.7	61	42.5	0	1	248	0.00	29.774 
23:30	55.7	55.7	55.7	61	42.5	0	3	248	0.00	29.774 
23:35	55.6	55.6	55.6	62	42.8	0	1	248	0.00	29.773 
23:40	55.6	55.6	55.6	62	42.8	0	1	248	0.00	29.773 
23:45	55.4	55.4	55.4	62	42.6	0	1	248	0.00	29.775 
23:50	55.4	55.4	55.4	63	43.0	0	2	248	0.00	29.775 
23:55	55.4	55.4	55.4	62	42.6	0	1	248	0.00	29.775 

CoCoRaHS
IN-AL-39
A2 Web Hosting
Creative Commons License
GoDaddy
Look for:

loaded 2017-10-16 18:37:39 • last modified 2010-11-18 10:43:29
Privacy PolicyDisclaimer
• wx.awcolley.com is powered by PmWiki v.2002016 •
• all content (unless otherwise noted) © 2017 A W Colley